createdAt,value
2019-04-22T00:00:04.761Z,0.00
2019-04-22T00:01:08.280Z,0.00
2019-04-22T00:02:10.496Z,0.00
2019-04-22T00:03:09.188Z,0.00
2019-04-22T00:04:11.055Z,0.00
2019-04-22T00:05:13.156Z,0.00
2019-04-22T00:06:24.237Z,0.00
2019-04-22T00:07:30.737Z,0.00
2019-04-22T00:08:29.518Z,0.00
2019-04-22T00:09:31.095Z,0.00
2019-04-22T00:10:32.734Z,0.00
2019-04-22T00:11:31.162Z,0.00
2019-04-22T00:12:34.630Z,0.00
2019-04-22T00:13:37.051Z,0.00
2019-04-22T00:14:24.553Z,0.00
2019-04-22T00:15:25.880Z,0.00
2019-04-22T00:16:34.396Z,0.00
2019-04-22T00:17:38.792Z,0.00
2019-04-22T00:18:50.572Z,0.00
2019-04-22T00:20:33.614Z,0.00
2019-04-22T00:21:37.294Z,0.00
2019-04-22T00:22:32.067Z,0.00
2019-04-22T00:23:34.610Z,0.00
2019-04-22T00:24:32.931Z,0.00
2019-04-22T00:25:44.037Z,0.00
2019-04-22T00:26:29.025Z,0.00
2019-04-22T00:27:35.634Z,0.00
2019-04-22T00:28:33.475Z,0.00
2019-04-22T00:30:32.435Z,0.00
2019-04-22T00:31:27.402Z,0.00
2019-04-22T00:32:30.395Z,0.00
2019-04-22T00:33:31.287Z,0.00
2019-04-22T00:34:29.494Z,0.00
2019-04-22T00:35:33.169Z,0.00
2019-04-22T00:36:28.606Z,0.00
2019-04-22T00:37:30.521Z,0.00
2019-04-22T00:38:31.442Z,0.00
2019-04-22T00:39:37.123Z,0.00
2019-04-22T00:40:33.897Z,0.00
2019-04-22T00:41:34.274Z,0.00
2019-04-22T00:42:34.853Z,0.00
2019-04-22T00:43:32.948Z,0.00
2019-04-22T00:44:33.334Z,0.00
2019-04-22T00:45:37.472Z,0.00
2019-04-22T00:46:34.569Z,0.00
2019-04-22T00:47:36.703Z,0.00
2019-04-22T00:50:07.853Z,0.00
2019-04-22T00:50:34.716Z,0.00
2019-04-22T00:51:36.515Z,0.00
2019-04-22T00:52:32.423Z,0.00
2019-04-22T00:53:29.774Z,0.00
2019-04-22T00:54:30.996Z,0.00
2019-04-22T00:55:32.685Z,0.00
2019-04-22T00:56:27.896Z,0.00
2019-04-22T00:57:30.884Z,0.00
2019-04-22T00:58:33.876Z,0.00
2019-04-22T00:59:35.122Z,0.00
2019-04-22T01:00:34.158Z,0.00
2019-04-22T01:01:35.007Z,0.00
2019-04-22T01:02:32.570Z,0.00
2019-04-22T01:03:34.288Z,0.00
2019-04-22T01:04:34.641Z,0.00
2019-04-22T01:05:37.101Z,0.00
2019-04-22T01:06:33.341Z,0.00
2019-04-22T01:07:30.907Z,0.00
2019-04-22T01:08:40.966Z,0.00
2019-04-22T01:09:34.697Z,0.00
2019-04-22T01:10:33.814Z,0.00
2019-04-22T01:11:33.588Z,0.00
2019-04-22T01:12:34.634Z,0.00
2019-04-22T01:13:33.532Z,0.00
2019-04-22T01:14:28.034Z,0.00
2019-04-22T01:15:34.355Z,0.00
2019-04-22T01:16:28.107Z,0.00
2019-04-22T01:17:37.320Z,0.00
2019-04-22T01:18:29.287Z,0.00
2019-04-22T01:19:32.067Z,0.00
2019-04-22T01:20:54.592Z,0.00
2019-04-22T01:21:36.991Z,0.00
2019-04-22T01:22:27.086Z,0.00
2019-04-22T01:23:28.185Z,0.00
2019-04-22T01:24:31.090Z,0.00
2019-04-22T01:25:25.781Z,0.00
2019-04-22T01:26:24.897Z,0.00
2019-04-22T01:27:22.122Z,0.00
2019-04-22T01:28:18.002Z,0.00
2019-04-22T01:29:19.706Z,0.00
2019-04-22T01:30:17.429Z,0.00
2019-04-22T01:31:12.380Z,0.00
2019-04-22T01:32:13.222Z,0.00
2019-04-22T01:33:16.093Z,0.00
2019-04-22T01:34:23.309Z,0.00
2019-04-22T01:35:20.979Z,0.00
2019-04-22T01:36:25.899Z,0.00
2019-04-22T01:37:27.194Z,0.00
2019-04-22T01:38:23.360Z,0.00
2019-04-22T01:39:36.263Z,0.00
2019-04-22T01:40:33.167Z,0.00
2019-04-22T01:41:41.811Z,0.00
2019-04-22T01:42:32.842Z,0.00
2019-04-22T01:43:37.453Z,0.00
2019-04-22T01:44:33.095Z,0.00
2019-04-22T01:45:31.339Z,0.00
2019-04-22T01:46:39.619Z,0.00
2019-04-22T01:47:34.247Z,0.00
2019-04-22T01:48:37.277Z,0.00
2019-04-22T01:49:33.361Z,0.00
2019-04-22T01:50:30.730Z,0.00
2019-04-22T01:51:47.855Z,0.00
2019-04-22T01:52:29.428Z,0.00
2019-04-22T01:53:36.052Z,0.00
2019-04-22T01:54:35.387Z,0.00
2019-04-22T01:55:38.625Z,0.00
2019-04-22T01:56:33.258Z,0.00
2019-04-22T01:57:28.451Z,0.00
2019-04-22T01:59:29.174Z,0.00
2019-04-22T02:00:35.950Z,0.00
2019-04-22T02:01:40.120Z,0.00
2019-04-22T02:03:33.287Z,0.00
2019-04-22T02:04:38.312Z,0.00
2019-04-22T02:05:28.762Z,0.00
2019-04-22T02:06:35.093Z,0.00
2019-04-22T02:07:48.239Z,0.00
2019-04-22T02:08:40.867Z,0.00
2019-04-22T02:10:40.341Z,0.00
2019-04-22T02:11:39.060Z,0.00
2019-04-22T02:12:36.869Z,0.00
2019-04-22T02:13:36.346Z,0.00
2019-04-22T02:14:34.133Z,0.00
2019-04-22T02:15:31.622Z,0.00
2019-04-22T02:16:36.958Z,0.00
2019-04-22T02:17:37.175Z,0.00
2019-04-22T02:20:32.631Z,0.00
2019-04-22T02:21:31.558Z,0.00
2019-04-22T02:22:54.168Z,0.00
2019-04-22T02:24:39.919Z,0.00
2019-04-22T02:25:32.353Z,0.00
2019-04-22T02:26:36.947Z,0.00
2019-04-22T02:27:45.981Z,0.00
2019-04-22T02:28:38.353Z,0.00
2019-04-22T02:29:34.641Z,0.00
2019-04-22T02:30:56.637Z,0.00
2019-04-22T02:34:40.212Z,0.00
2019-04-22T02:35:52.127Z,0.00
2019-04-22T02:37:35.817Z,0.00
2019-04-22T02:38:51.641Z,0.00
2019-04-22T02:39:31.878Z,0.00
2019-04-22T02:40:50.865Z,0.00
2019-04-22T02:41:31.546Z,0.00
2019-04-22T02:42:51.731Z,0.00
2019-04-22T02:44:44.863Z,0.00
2019-04-22T02:45:50.291Z,0.00
2019-04-22T02:46:53.289Z,0.00
2019-04-22T02:47:54.670Z,0.00
2019-04-22T02:50:36.673Z,0.00
2019-04-22T02:51:43.502Z,0.00
2019-04-22T02:52:37.644Z,0.00
2019-04-22T02:54:17.223Z,0.00
2019-04-22T02:54:55.064Z,0.00
2019-04-22T02:55:41.208Z,0.00
2019-04-22T02:58:55.027Z,0.00
2019-04-22T02:59:39.822Z,0.00
2019-04-22T03:00:38.986Z,0.00
2019-04-22T03:01:43.061Z,0.00
2019-04-22T03:03:54.485Z,0.00
2019-04-22T03:04:37.464Z,0.00
2019-04-22T03:05:48.928Z,0.00
2019-04-22T03:07:48.927Z,0.00
2019-04-22T03:08:41.707Z,0.00
2019-04-22T03:10:46.162Z,0.00
2019-04-22T03:12:34.854Z,0.00
2019-04-22T03:13:46.985Z,0.00
2019-04-22T03:14:50.028Z,0.00
2019-04-22T03:15:44.513Z,0.00
2019-04-22T03:16:40.777Z,0.00
2019-04-22T03:18:51.163Z,0.00
2019-04-22T03:19:53.001Z,0.00
2019-04-22T03:20:42.726Z,0.00
2019-04-22T03:22:39.036Z,0.00
2019-04-22T03:26:05.025Z,0.00
2019-04-22T03:27:37.160Z,0.00
2019-04-22T03:28:49.931Z,0.00
2019-04-22T03:29:44.519Z,0.00
2019-04-22T03:35:45.215Z,0.00
2019-04-22T03:37:48.825Z,0.00
2019-04-22T03:38:55.249Z,0.00
2019-04-22T03:41:57.309Z,0.00
2019-04-22T03:42:45.719Z,0.00
2019-04-22T03:43:56.165Z,0.00
2019-04-22T03:44:39.174Z,0.00
2019-04-22T03:45:32.159Z,0.00
2019-04-22T03:46:55.342Z,0.00
2019-04-22T03:48:47.324Z,0.00
2019-04-22T03:50:55.125Z,0.00
2019-04-22T03:51:45.779Z,0.00
2019-04-22T03:53:43.792Z,0.00
2019-04-22T03:54:45.587Z,0.00
2019-04-22T03:55:39.069Z,0.00
2019-04-22T03:57:49.119Z,0.00
2019-04-22T03:58:40.977Z,0.00
2019-04-22T03:59:41.363Z,0.00
2019-04-22T04:00:45.553Z,0.00
2019-04-22T04:03:49.207Z,0.00
2019-04-22T04:04:59.169Z,0.00
2019-04-22T04:05:45.455Z,0.00
2019-04-22T04:06:52.438Z,0.00
2019-04-22T04:07:47.550Z,0.00
2019-04-22T04:08:47.471Z,0.00
2019-04-22T04:10:46.168Z,0.00
2019-04-22T04:11:52.146Z,0.00
2019-04-22T04:13:46.007Z,0.00
2019-04-22T04:14:46.607Z,0.00
2019-04-22T04:16:50.381Z,0.00
2019-04-22T04:17:44.081Z,0.00
2019-04-22T04:18:47.309Z,0.00
2019-04-22T04:19:54.149Z,0.00
2019-04-22T04:20:51.117Z,0.00
2019-04-22T04:22:54.071Z,0.00
2019-04-22T04:23:53.562Z,4.00
2019-04-22T04:25:08.379Z,0.00
2019-04-22T04:28:53.213Z,4.00
2019-04-22T04:30:42.653Z,4.00
2019-04-22T04:33:54.100Z,4.00
2019-04-22T04:35:07.179Z,4.00
2019-04-22T04:35:58.708Z,4.00
2019-04-22T04:36:42.163Z,4.00
2019-04-22T04:37:46.956Z,4.00
2019-04-22T04:38:48.111Z,4.00
2019-04-22T04:39:44.242Z,8.00
2019-04-22T04:42:54.118Z,12.00
2019-04-22T04:43:49.384Z,12.00
2019-04-22T04:44:58.712Z,12.00
2019-04-22T04:45:51.196Z,12.00
2019-04-22T04:46:51.785Z,16.00
2019-04-22T04:49:46.031Z,20.00
2019-04-22T04:50:38.442Z,20.00
2019-04-22T04:51:43.888Z,20.00
2019-04-22T04:55:06.228Z,20.00
2019-04-22T04:55:57.826Z,24.00
2019-04-22T04:56:43.617Z,28.00
2019-04-22T04:57:57.569Z,24.00
2019-04-22T05:00:25.710Z,32.00
2019-04-22T05:01:49.289Z,32.00
2019-04-22T05:03:49.744Z,36.00
2019-04-22T05:07:40.381Z,44.00
2019-04-22T05:09:37.760Z,52.00
2019-04-22T05:10:49.626Z,52.00
2019-04-22T05:13:50.074Z,64.00
2019-04-22T05:14:36.877Z,68.00
2019-04-22T05:15:55.330Z,68.00
2019-04-22T05:16:42.928Z,72.00
2019-04-22T05:19:33.382Z,80.00
2019-04-22T05:21:36.338Z,84.00
2019-04-22T05:23:40.511Z,92.00
2019-04-22T05:24:40.579Z,96.00
2019-04-22T05:25:53.509Z,96.00
2019-04-22T05:26:39.761Z,100.00
2019-04-22T05:28:35.136Z,104.00
2019-04-22T05:29:59.315Z,104.00
2019-04-22T05:30:32.046Z,108.00
2019-04-22T05:31:41.064Z,108.00
2019-04-22T05:32:37.308Z,112.00
2019-04-22T05:33:34.818Z,112.00
2019-04-22T05:34:36.588Z,116.00
2019-04-22T05:35:30.863Z,120.00
2019-04-22T05:36:37.580Z,120.00
2019-04-22T05:37:35.463Z,120.00
2019-04-22T05:38:39.961Z,120.00
2019-04-22T05:39:41.074Z,124.00
2019-04-22T05:40:29.370Z,124.00
2019-04-22T05:41:35.264Z,128.00
2019-04-22T05:42:30.313Z,124.00
2019-04-22T05:43:34.343Z,128.00
2019-04-22T05:44:39.441Z,128.00
2019-04-22T05:45:31.403Z,128.00
2019-04-22T05:46:34.517Z,128.00
2019-04-22T05:47:35.221Z,132.00
2019-04-22T05:48:41.063Z,128.00
2019-04-22T05:49:36.898Z,132.00
2019-04-22T05:50:26.985Z,132.00
2019-04-22T05:51:38.567Z,132.00
2019-04-22T05:52:36.072Z,132.00
2019-04-22T05:53:33.874Z,132.00
2019-04-22T05:54:33.049Z,132.00
2019-04-22T05:55:36.061Z,136.00
2019-04-22T05:57:34.438Z,136.00
2019-04-22T05:58:39.710Z,132.00
2019-04-22T05:59:40.844Z,136.00
2019-04-22T06:01:45.130Z,140.00
2019-04-22T06:02:48.685Z,140.00
2019-04-22T06:03:37.914Z,144.00
2019-04-22T06:04:30.767Z,144.00
2019-04-22T06:05:38.656Z,148.00
2019-04-22T06:06:29.321Z,152.00
2019-04-22T06:07:32.532Z,156.00
2019-04-22T06:08:29.593Z,152.00
2019-04-22T06:09:32.341Z,156.00
2019-04-22T06:10:39.293Z,160.00
2019-04-22T06:11:29.494Z,160.00
2019-04-22T06:12:26.531Z,168.00
2019-04-22T06:13:27.865Z,168.00
2019-04-22T06:14:34.567Z,172.00
2019-04-22T06:15:33.868Z,176.00
2019-04-22T06:16:42.326Z,176.00
2019-04-22T06:17:37.802Z,180.00
2019-04-22T06:18:33.465Z,184.00
2019-04-22T06:19:31.311Z,192.00
2019-04-22T06:20:37.025Z,192.00
2019-04-22T06:21:38.616Z,196.00
2019-04-22T06:22:50.474Z,200.00
2019-04-22T06:23:40.456Z,196.00
2019-04-22T06:24:32.041Z,200.00
2019-04-22T06:25:54.680Z,200.00
2019-04-22T06:26:45.750Z,200.00
2019-04-22T06:27:38.979Z,204.00
2019-04-22T06:29:31.896Z,216.00
2019-04-22T06:30:36.021Z,216.00
2019-04-22T06:31:49.797Z,216.00
2019-04-22T06:32:34.584Z,212.00
2019-04-22T06:33:34.858Z,208.00
2019-04-22T06:34:35.767Z,212.00
2019-04-22T06:35:39.034Z,204.00
2019-04-22T06:36:44.195Z,200.00
2019-04-22T06:38:09.922Z,204.00
2019-04-22T06:38:34.062Z,204.00
2019-04-22T06:39:33.955Z,208.00
2019-04-22T06:41:35.441Z,204.00
2019-04-22T06:42:36.661Z,204.00
2019-04-22T06:43:36.879Z,204.00
2019-04-22T06:44:36.495Z,204.00
2019-04-22T06:45:35.110Z,204.00
2019-04-22T06:46:35.142Z,204.00
2019-04-22T06:47:51.176Z,208.00
2019-04-22T06:48:52.491Z,204.00
2019-04-22T06:49:35.796Z,208.00
2019-04-22T06:50:36.717Z,208.00
2019-04-22T06:51:40.216Z,204.00
2019-04-22T06:52:30.777Z,208.00
2019-04-22T06:53:34.643Z,208.00
2019-04-22T06:54:34.050Z,208.00
2019-04-22T06:55:41.433Z,208.00
2019-04-22T06:56:35.104Z,208.00
2019-04-22T06:57:41.655Z,204.00
2019-04-22T06:58:36.671Z,200.00
2019-04-22T06:59:36.273Z,204.00
2019-04-22T07:00:38.355Z,212.00
2019-04-22T07:01:38.021Z,208.00
2019-04-22T07:02:45.186Z,208.00
2019-04-22T07:03:45.913Z,204.00
2019-04-22T07:04:33.776Z,208.00
2019-04-22T07:05:32.920Z,208.00
2019-04-22T07:06:42.082Z,204.00
2019-04-22T07:07:31.758Z,192.00
2019-04-22T07:11:33.361Z,196.00
2019-04-22T07:12:37.974Z,200.00
2019-04-22T07:13:34.405Z,200.00
2019-04-22T07:14:37.351Z,196.00
2019-04-22T07:16:38.215Z,212.00
2019-04-22T07:17:42.698Z,212.00
2019-04-22T07:18:48.699Z,220.00
2019-04-22T07:19:47.599Z,228.00
2019-04-22T07:20:36.336Z,240.00
2019-04-22T07:21:36.914Z,248.00
2019-04-22T07:22:33.722Z,264.00
2019-04-22T07:25:36.347Z,284.00
2019-04-22T07:26:51.218Z,284.00
2019-04-22T07:27:34.706Z,288.00
2019-04-22T07:28:29.749Z,300.00
2019-04-22T07:29:37.508Z,300.00
2019-04-22T07:30:35.594Z,308.00
2019-04-22T07:31:37.247Z,304.00
2019-04-22T07:32:58.082Z,308.00
2019-04-22T07:35:47.417Z,316.00
2019-04-22T07:37:37.078Z,324.00
2019-04-22T07:38:31.399Z,320.00
2019-04-22T07:39:35.450Z,324.00
2019-04-22T07:40:39.968Z,328.00
2019-04-22T07:41:38.306Z,332.00
2019-04-22T07:42:36.537Z,324.00
2019-04-22T07:43:52.802Z,332.00
2019-04-22T07:44:43.563Z,328.00
2019-04-22T07:45:36.232Z,332.00
2019-04-22T07:47:58.916Z,324.00
2019-04-22T07:48:43.429Z,328.00
2019-04-22T07:49:39.131Z,328.00
2019-04-22T07:50:49.356Z,324.00
2019-04-22T07:51:36.880Z,328.00
2019-04-22T07:52:35.167Z,324.00
2019-04-22T07:53:34.231Z,320.00
2019-04-22T07:54:34.654Z,312.00
2019-04-22T07:55:36.858Z,308.00
2019-04-22T07:56:40.538Z,316.00
2019-04-22T07:58:35.993Z,316.00
2019-04-22T07:59:34.435Z,320.00
2019-04-22T08:00:34.204Z,320.00
2019-04-22T08:01:30.824Z,320.00
2019-04-22T08:02:39.172Z,328.00
2019-04-22T08:03:49.974Z,328.00
2019-04-22T08:05:48.018Z,332.00
2019-04-22T08:06:43.577Z,332.00
2019-04-22T08:07:36.009Z,332.00
2019-04-22T08:08:38.925Z,340.00
2019-04-22T08:12:39.022Z,352.00
2019-04-22T08:13:38.546Z,356.00
2019-04-22T08:14:35.858Z,356.00
2019-04-22T08:15:41.750Z,360.00
2019-04-22T08:16:36.854Z,364.00
2019-04-22T08:18:35.042Z,372.00
2019-04-22T08:19:35.413Z,380.00
2019-04-22T08:20:39.253Z,380.00
2019-04-22T08:21:38.666Z,384.00
2019-04-22T08:22:34.083Z,384.00
2019-04-22T08:23:36.817Z,388.00
2019-04-22T08:25:39.521Z,396.00
2019-04-22T08:26:38.327Z,392.00
2019-04-22T08:27:35.665Z,392.00
2019-04-22T08:28:37.878Z,400.00
2019-04-22T08:30:02.143Z,404.00
2019-04-22T08:31:55.229Z,404.00
2019-04-22T08:33:37.386Z,412.00
2019-04-22T08:34:39.726Z,412.00
2019-04-22T08:35:56.706Z,420.00
2019-04-22T08:36:40.790Z,424.00
2019-04-22T08:37:47.496Z,424.00
2019-04-22T08:38:39.604Z,424.00
2019-04-22T08:39:39.131Z,432.00
2019-04-22T08:40:45.286Z,432.00
2019-04-22T08:42:50.324Z,444.00
2019-04-22T08:43:51.522Z,448.00
2019-04-22T08:45:01.230Z,452.00
2019-04-22T08:45:38.939Z,456.00
2019-04-22T08:47:36.145Z,468.00
2019-04-22T08:48:36.456Z,476.00
2019-04-22T08:49:42.508Z,480.00
2019-04-22T08:50:39.420Z,484.00
2019-04-22T08:51:36.233Z,496.00
2019-04-22T08:52:38.872Z,500.00
2019-04-22T08:53:39.901Z,504.00
2019-04-22T08:54:36.223Z,508.00
2019-04-22T08:55:38.448Z,516.00
2019-04-22T08:57:46.901Z,532.00
2019-04-22T08:58:40.411Z,532.00
2019-04-22T08:59:37.154Z,540.00
2019-04-22T09:00:44.173Z,544.00
2019-04-22T09:01:32.997Z,548.00
2019-04-22T09:02:38.637Z,552.00
2019-04-22T09:03:39.764Z,512.00
2019-04-22T09:04:30.903Z,528.00
2019-04-22T09:05:49.992Z,548.00
2019-04-22T09:06:56.862Z,552.00
2019-04-22T09:07:41.393Z,568.00
2019-04-22T09:08:42.310Z,568.00
2019-04-22T09:09:39.132Z,576.00
2019-04-22T09:10:37.537Z,580.00
2019-04-22T09:11:44.406Z,584.00
2019-04-22T09:12:53.338Z,592.00
2019-04-22T09:13:35.490Z,608.00
2019-04-22T09:14:39.244Z,612.00
2019-04-22T09:15:34.490Z,620.00
2019-04-22T09:16:37.275Z,632.00
2019-04-22T09:17:35.011Z,632.00
2019-04-22T09:18:45.939Z,644.00
2019-04-22T09:19:36.498Z,652.00
2019-04-22T09:20:40.746Z,660.00
2019-04-22T09:21:37.792Z,668.00
2019-04-22T09:22:36.319Z,676.00
2019-04-22T09:23:53.926Z,684.00
2019-04-22T09:24:36.144Z,692.00
2019-04-22T09:25:36.013Z,700.00
2019-04-22T09:27:41.263Z,720.00
2019-04-22T09:28:41.712Z,732.00
2019-04-22T09:29:39.826Z,740.00
2019-04-22T09:30:40.089Z,748.00
2019-04-22T09:31:35.876Z,760.00
2019-04-22T09:32:38.715Z,768.00
2019-04-22T09:33:38.372Z,784.00
2019-04-22T09:34:39.872Z,796.00
2019-04-22T09:35:40.379Z,808.00
2019-04-22T09:37:39.301Z,824.00
2019-04-22T09:38:38.198Z,836.00
2019-04-22T09:39:41.469Z,852.00
2019-04-22T09:40:34.640Z,860.00
2019-04-22T09:41:40.089Z,868.00
2019-04-22T09:42:39.605Z,872.00
2019-04-22T09:43:41.045Z,876.00
2019-04-22T09:44:41.733Z,888.00
2019-04-22T09:45:34.372Z,900.00
2019-04-22T09:46:41.016Z,896.00
2019-04-22T09:47:43.566Z,916.00
2019-04-22T09:49:44.766Z,940.00
2019-04-22T09:51:37.461Z,964.00
2019-04-22T09:52:42.086Z,968.00
2019-04-22T09:53:49.776Z,976.00
2019-04-22T09:54:49.515Z,984.00
2019-04-22T09:55:37.468Z,988.00
2019-04-22T09:56:38.712Z,996.00
2019-04-22T09:57:50.960Z,1004.00
2019-04-22T09:58:41.133Z,1008.00
2019-04-22T09:59:35.272Z,1020.00
2019-04-22T10:00:46.264Z,1032.00
2019-04-22T10:01:34.112Z,1040.00
2019-04-22T10:02:40.755Z,1048.00
2019-04-22T10:03:36.805Z,1060.00
2019-04-22T10:04:44.916Z,1068.00
2019-04-22T10:05:46.098Z,1080.00
2019-04-22T10:07:54.444Z,1100.00
2019-04-22T10:08:41.774Z,1104.00
2019-04-22T10:09:52.829Z,1112.00
2019-04-22T10:10:46.505Z,1116.00
2019-04-22T10:11:37.750Z,1132.00
2019-04-22T10:12:42.635Z,1136.00
2019-04-22T10:13:43.827Z,1148.00
2019-04-22T10:14:39.558Z,1164.00
2019-04-22T10:15:39.659Z,1172.00
2019-04-22T10:17:40.229Z,1188.00
2019-04-22T10:18:40.580Z,1188.00
2019-04-22T10:19:39.361Z,1200.00
2019-04-22T10:20:38.202Z,1208.00
2019-04-22T10:21:44.808Z,1216.00
2019-04-22T10:22:39.336Z,1156.00
2019-04-22T10:23:41.665Z,1232.00
2019-04-22T10:24:39.137Z,1232.00
2019-04-22T10:25:40.247Z,1244.00
2019-04-22T10:26:40.930Z,1252.00
2019-04-22T10:27:40.045Z,1260.00
2019-04-22T10:28:42.294Z,1268.00
2019-04-22T10:29:43.890Z,1276.00
2019-04-22T10:30:45.939Z,1276.00
2019-04-22T10:31:46.221Z,1284.00
2019-04-22T10:32:38.022Z,1288.00
2019-04-22T10:33:30.907Z,1292.00
2019-04-22T10:34:26.426Z,1308.00
2019-04-22T10:35:17.157Z,940.00
2019-04-22T10:36:13.170Z,1296.00
2019-04-22T10:37:17.010Z,1336.00
2019-04-22T10:38:12.675Z,1348.00
2019-04-22T10:39:12.782Z,1288.00
2019-04-22T10:40:13.640Z,824.00
2019-04-22T10:41:12.719Z,984.00
2019-04-22T10:42:13.305Z,768.00
2019-04-22T10:43:12.753Z,692.00
2019-04-22T10:44:13.072Z,720.00
2019-04-22T10:45:14.332Z,808.00
2019-04-22T10:46:13.819Z,752.00
2019-04-22T10:47:13.952Z,956.00
2019-04-22T10:48:14.383Z,988.00
2019-04-22T10:49:12.848Z,888.00
2019-04-22T10:50:14.264Z,1172.00
2019-04-22T10:51:12.883Z,1232.00
2019-04-22T10:52:13.009Z,1224.00
2019-04-22T10:53:13.308Z,1380.00
2019-04-22T10:54:13.516Z,1548.00
2019-04-22T10:55:13.773Z,1620.00
2019-04-22T10:56:12.963Z,1256.00
2019-04-22T10:57:13.977Z,1056.00
2019-04-22T10:58:13.002Z,916.00
2019-04-22T10:59:14.182Z,584.00
2019-04-22T11:00:13.602Z,548.00
2019-04-22T11:01:13.671Z,536.00
2019-04-22T11:02:13.720Z,552.00
2019-04-22T11:03:14.028Z,812.00
2019-04-22T11:04:13.336Z,664.00
2019-04-22T11:05:14.354Z,1016.00
2019-04-22T11:06:13.118Z,1484.00
2019-04-22T11:07:14.689Z,896.00
2019-04-22T11:08:20.408Z,1180.00
2019-04-22T11:09:14.274Z,1508.00
2019-04-22T11:10:27.754Z,1476.00
2019-04-22T11:11:26.359Z,1568.00
2019-04-22T11:12:17.677Z,1616.00
2019-04-22T11:13:13.714Z,1620.00
2019-04-22T11:14:14.678Z,1604.00
2019-04-22T11:15:13.771Z,1596.00
2019-04-22T11:16:13.802Z,1576.00
2019-04-22T11:17:13.576Z,1568.00
2019-04-22T11:18:13.545Z,1548.00
2019-04-22T11:19:13.957Z,1560.00
2019-04-22T11:20:13.564Z,1556.00
2019-04-22T11:21:13.777Z,1548.00
2019-04-22T11:22:20.900Z,1552.00
2019-04-22T11:23:14.374Z,1540.00
2019-04-22T11:24:14.756Z,1556.00
2019-04-22T11:25:13.860Z,1556.00
2019-04-22T11:26:13.456Z,1532.00
2019-04-22T11:27:14.757Z,1576.00
2019-04-22T11:28:13.736Z,1576.00
2019-04-22T11:29:13.991Z,1568.00
2019-04-22T11:30:16.711Z,1428.00
2019-04-22T11:31:14.702Z,1576.00
2019-04-22T11:32:14.748Z,1548.00
2019-04-22T11:33:14.363Z,1576.00
2019-04-22T11:34:15.127Z,1596.00
2019-04-22T11:35:13.897Z,1584.00
2019-04-22T11:36:13.710Z,1516.00
2019-04-22T11:37:14.658Z,1508.00
2019-04-22T11:38:15.000Z,1532.00
2019-04-22T11:39:16.887Z,1460.00
2019-04-22T11:40:23.332Z,1532.00
2019-04-22T11:41:14.778Z,1504.00
2019-04-22T11:42:14.042Z,1524.00
2019-04-22T11:43:14.574Z,1496.00
2019-04-22T11:44:15.092Z,1520.00
2019-04-22T11:45:14.933Z,1284.00
2019-04-22T11:46:13.812Z,1476.00
2019-04-22T11:47:15.119Z,1216.00
2019-04-22T11:48:15.313Z,1436.00
2019-04-22T11:49:14.108Z,1524.00
2019-04-22T11:50:13.891Z,1516.00
2019-04-22T11:51:14.082Z,1472.00
2019-04-22T11:52:16.395Z,1456.00
2019-04-22T11:53:13.942Z,1452.00
2019-04-22T11:54:14.718Z,1532.00
2019-04-22T11:55:15.033Z,1492.00
2019-04-22T11:56:14.013Z,1444.00
2019-04-22T11:57:15.075Z,1400.00
2019-04-22T11:58:14.942Z,1588.00
2019-04-22T11:59:15.083Z,1480.00
2019-04-22T12:00:14.713Z,1540.00
2019-04-22T12:01:14.872Z,1544.00
2019-04-22T12:02:16.139Z,1600.00
2019-04-22T12:03:14.733Z,1600.00
2019-04-22T12:04:14.141Z,1596.00
2019-04-22T12:05:14.286Z,1580.00
2019-04-22T12:06:15.680Z,1584.00
2019-04-22T12:07:15.084Z,1492.00
2019-04-22T12:08:15.509Z,1380.00
2019-04-22T12:09:15.356Z,1376.00
2019-04-22T12:10:22.856Z,1440.00
2019-04-22T12:11:14.270Z,1456.00
2019-04-22T12:12:15.834Z,1656.00
2019-04-22T12:13:15.666Z,1660.00
2019-04-22T12:14:14.331Z,1648.00
2019-04-22T12:15:15.032Z,1424.00
2019-04-22T12:16:14.369Z,1244.00
2019-04-22T12:17:15.875Z,1180.00
2019-04-22T12:18:15.279Z,1060.00
2019-04-22T12:19:15.679Z,1028.00
2019-04-22T12:20:16.030Z,1108.00
2019-04-22T12:21:15.263Z,1016.00
2019-04-22T12:22:15.341Z,1148.00
2019-04-22T12:23:14.808Z,1224.00
2019-04-22T12:24:15.169Z,1128.00
2019-04-22T12:25:28.019Z,812.00
2019-04-22T12:26:18.852Z,640.00
2019-04-22T12:27:17.366Z,600.00
2019-04-22T12:28:15.108Z,600.00
2019-04-22T12:29:15.352Z,660.00
2019-04-22T12:30:14.852Z,692.00
2019-04-22T12:31:15.516Z,976.00
2019-04-22T12:32:15.732Z,1108.00
2019-04-22T12:33:15.065Z,1212.00
2019-04-22T12:34:15.451Z,1256.00
2019-04-22T12:35:15.598Z,1172.00
2019-04-22T12:36:14.989Z,1132.00
2019-04-22T12:37:22.317Z,1212.00
2019-04-22T12:38:17.004Z,1108.00
2019-04-22T12:39:15.669Z,1084.00
2019-04-22T12:40:27.003Z,1212.00
2019-04-22T12:41:16.035Z,1180.00
2019-04-22T12:42:15.345Z,832.00
2019-04-22T12:43:18.092Z,716.00
2019-04-22T12:44:15.071Z,1216.00
2019-04-22T12:45:16.259Z,1272.00
2019-04-22T12:46:16.228Z,892.00
2019-04-22T12:47:14.986Z,1136.00
2019-04-22T12:48:15.141Z,1492.00
2019-04-22T12:49:16.333Z,1252.00
2019-04-22T12:50:22.411Z,744.00
2019-04-22T12:51:15.409Z,1124.00
2019-04-22T12:52:24.130Z,1492.00
2019-04-22T12:53:19.836Z,1472.00
2019-04-22T12:54:15.235Z,1696.00
2019-04-22T12:55:17.314Z,1560.00
2019-04-22T12:56:15.498Z,1304.00
2019-04-22T12:57:16.717Z,1076.00
2019-04-22T12:58:15.757Z,1268.00
2019-04-22T12:59:15.158Z,1208.00
2019-04-22T13:00:15.593Z,1288.00
2019-04-22T13:01:15.278Z,1424.00
2019-04-22T13:02:15.510Z,1564.00
2019-04-22T13:03:15.898Z,1548.00
2019-04-22T13:04:17.594Z,1464.00
2019-04-22T13:05:16.297Z,1592.00
2019-04-22T13:06:15.292Z,1564.00
2019-04-22T13:07:15.702Z,1564.00
2019-04-22T13:08:15.800Z,1552.00
2019-04-22T13:09:17.581Z,1564.00
2019-04-22T13:10:15.727Z,1560.00
2019-04-22T13:11:19.474Z,1552.00
2019-04-22T13:12:15.391Z,1540.00
2019-04-22T13:13:15.475Z,1536.00
2019-04-22T13:14:16.714Z,1544.00
2019-04-22T13:15:15.979Z,1536.00
2019-04-22T13:16:15.502Z,1540.00
2019-04-22T13:17:17.031Z,1544.00
2019-04-22T13:18:27.091Z,1536.00
2019-04-22T13:19:18.639Z,1532.00
2019-04-22T13:20:18.253Z,1532.00
2019-04-22T13:21:15.557Z,1536.00
2019-04-22T13:22:16.955Z,1536.00
2019-04-22T13:23:15.815Z,1532.00
2019-04-22T13:24:18.521Z,1508.00
2019-04-22T13:25:15.718Z,1528.00
2019-04-22T13:26:16.898Z,1536.00
2019-04-22T13:27:17.116Z,1532.00
2019-04-22T13:28:15.686Z,1552.00
2019-04-22T13:29:16.871Z,1552.00
2019-04-22T13:30:16.441Z,1544.00
2019-04-22T13:31:16.101Z,1536.00
2019-04-22T13:32:16.569Z,1544.00
2019-04-22T13:33:16.820Z,1544.00
2019-04-22T13:34:21.612Z,1552.00
2019-04-22T13:35:18.496Z,1540.00
2019-04-22T13:36:18.578Z,1536.00
2019-04-22T13:37:16.978Z,1548.00
2019-04-22T13:38:17.375Z,1544.00
2019-04-22T13:39:16.867Z,1544.00
2019-04-22T13:40:16.914Z,1528.00
2019-04-22T13:41:26.661Z,1548.00
2019-04-22T13:42:19.987Z,1540.00
2019-04-22T13:43:16.754Z,1532.00
2019-04-22T13:44:16.731Z,1524.00
2019-04-22T13:45:16.006Z,1516.00
2019-04-22T13:46:16.791Z,1508.00
2019-04-22T13:47:34.868Z,1512.00
2019-04-22T13:48:31.094Z,1512.00
2019-04-22T13:49:54.037Z,1520.00
2019-04-22T13:50:49.902Z,1516.00
2019-04-22T13:52:46.378Z,1512.00
2019-04-22T13:54:13.682Z,1512.00
2019-04-22T13:54:48.864Z,1524.00
2019-04-22T13:56:37.095Z,1516.00
2019-04-22T13:57:34.363Z,1520.00
2019-04-22T13:58:32.533Z,1516.00
2019-04-22T13:59:23.039Z,1536.00
2019-04-22T14:00:16.397Z,1532.00
2019-04-22T14:01:16.561Z,1532.00
2019-04-22T14:02:16.863Z,1532.00
2019-04-22T14:03:16.374Z,1528.00
2019-04-22T14:04:16.494Z,1532.00
2019-04-22T14:05:16.982Z,1540.00
2019-04-22T14:06:16.614Z,1544.00
2019-04-22T14:07:16.658Z,1544.00
2019-04-22T14:08:18.058Z,1528.00
2019-04-22T14:09:18.184Z,1520.00
2019-04-22T14:10:16.556Z,1520.00
2019-04-22T14:11:31.403Z,1520.00
2019-04-22T14:12:18.371Z,1532.00
2019-04-22T14:13:16.554Z,1508.00
2019-04-22T14:14:17.719Z,1476.00
2019-04-22T14:15:17.956Z,1464.00
2019-04-22T14:16:17.155Z,1504.00
2019-04-22T14:17:16.871Z,1516.00
2019-04-22T14:18:16.930Z,1532.00
2019-04-22T14:19:18.267Z,1536.00
2019-04-22T14:20:16.690Z,1556.00
2019-04-22T14:21:16.934Z,1560.00